createdAt,value
2023-03-22T00:00:30.492Z,9.13
2023-03-22T00:03:17.398Z,11.13
2023-03-22T00:06:03.940Z,8.47
2023-03-22T00:08:51.754Z,7.83
2023-03-22T00:11:38.090Z,7.57
2023-03-22T00:14:24.391Z,10.20
2023-03-22T00:17:11.165Z,9.90
2023-03-22T00:19:58.434Z,7.40
2023-03-22T00:22:44.924Z,9.00
2023-03-22T00:25:31.361Z,9.60
2023-03-22T00:28:18.327Z,10.73
2023-03-22T00:31:05.471Z,8.93
2023-03-22T00:33:52.115Z,8.00
2023-03-22T00:36:38.495Z,8.77
2023-03-22T00:39:25.116Z,6.50
2023-03-22T00:42:11.810Z,7.67
2023-03-22T00:44:59.743Z,8.17
2023-03-22T00:47:46.240Z,8.23
2023-03-22T00:50:32.684Z,9.23
2023-03-22T00:53:19.274Z,7.67
2023-03-22T00:56:06.831Z,8.07
2023-03-22T00:59:04.076Z,8.10
2023-03-22T01:01:50.698Z,9.50
2023-03-22T01:04:37.252Z,8.80
2023-03-22T01:07:24.970Z,10.37
2023-03-22T01:10:12.677Z,8.20
2023-03-22T01:12:59.181Z,9.87
2023-03-22T01:15:47.832Z,8.53
2023-03-22T01:18:35.811Z,6.80
2023-03-22T01:21:22.280Z,7.97
2023-03-22T01:24:09.450Z,7.57
2023-03-22T01:26:56.591Z,7.37
2023-03-22T01:29:42.904Z,7.07
2023-03-22T01:32:29.600Z,7.80
2023-03-22T01:35:16.473Z,7.17
2023-03-22T01:38:02.817Z,6.33
2023-03-22T01:40:49.472Z,8.83
2023-03-22T01:43:36.737Z,9.77
2023-03-22T01:46:23.527Z,6.73
2023-03-22T01:49:23.477Z,5.20
2023-03-22T01:52:14.754Z,5.67
2023-03-22T01:55:22.632Z,7.33
2023-03-22T01:58:18.267Z,5.10
2023-03-22T02:01:16.198Z,8.33
2023-03-22T02:04:15.507Z,5.63
2023-03-22T02:07:10.304Z,6.63
2023-03-22T02:09:59.302Z,3.83
2023-03-22T02:13:19.376Z,3.87
2023-03-22T02:16:44.317Z,6.40
2023-03-22T02:20:15.484Z,8.07
2023-03-22T02:23:05.880Z,5.37
2023-03-22T02:26:10.519Z,6.77
2023-03-22T02:29:17.784Z,6.03
2023-03-22T02:32:26.236Z,5.67
2023-03-22T02:35:35.027Z,5.97
2023-03-22T02:38:42.433Z,6.47
2023-03-22T02:41:54.748Z,8.07
2023-03-22T02:44:56.555Z,5.50
2023-03-22T02:47:49.857Z,4.77
2023-03-22T02:50:51.339Z,5.20
2023-03-22T02:53:50.487Z,5.30
2023-03-22T02:56:49.915Z,5.40
2023-03-22T02:59:40.933Z,6.67
2023-03-22T03:02:29.413Z,6.77
2023-03-22T03:05:18.743Z,5.53
2023-03-22T03:08:07.196Z,7.70
2023-03-22T03:10:56.733Z,6.70
2023-03-22T03:13:43.106Z,6.30
2023-03-22T03:16:34.675Z,9.70
2023-03-22T03:19:34.151Z,5.10
2023-03-22T03:22:41.596Z,5.33
2023-03-22T03:25:46.919Z,5.60
2023-03-22T03:28:44.902Z,6.80
2023-03-22T03:31:41.397Z,8.27
2023-03-22T03:34:42.113Z,8.33
2023-03-22T03:37:43.833Z,10.07
2023-03-22T03:40:33.658Z,7.30
2023-03-22T03:43:21.864Z,11.50
2023-03-22T03:46:10.304Z,10.63
2023-03-22T03:48:58.135Z,7.30
2023-03-22T03:51:48.109Z,7.90
2023-03-22T03:54:37.583Z,6.63
2023-03-22T03:57:27.221Z,7.20
2023-03-22T04:00:14.967Z,8.67
2023-03-22T04:03:14.984Z,7.23
2023-03-22T04:06:34.652Z,6.33
2023-03-22T04:09:29.971Z,7.83
2023-03-22T04:12:22.356Z,5.80
2023-03-22T04:15:28.886Z,5.97
2023-03-22T04:18:19.613Z,7.07
2023-03-22T04:21:06.719Z,8.47
2023-03-22T04:24:03.720Z,6.20
2023-03-22T04:26:55.476Z,8.20
2023-03-22T04:29:50.749Z,6.87
2023-03-22T04:32:56.344Z,8.07
2023-03-22T04:35:56.860Z,7.63
2023-03-22T04:38:49.582Z,7.43
2023-03-22T04:41:40.765Z,9.20
2023-03-22T04:44:27.290Z,8.53
2023-03-22T04:47:14.216Z,7.20
2023-03-22T04:50:00.767Z,10.27
2023-03-22T04:52:51.129Z,5.40
2023-03-22T04:55:37.568Z,7.17
2023-03-22T04:58:27.289Z,6.27
2023-03-22T05:01:15.425Z,6.40
2023-03-22T05:04:04.186Z,5.60
2023-03-22T05:06:50.456Z,7.37
2023-03-22T05:09:43.215Z,6.93
2023-03-22T05:12:29.821Z,8.07
2023-03-22T05:15:32.857Z,8.83
2023-03-22T05:18:26.333Z,7.67
2023-03-22T05:21:17.896Z,11.50
2023-03-22T05:24:05.108Z,8.33
2023-03-22T05:26:53.836Z,9.97
2023-03-22T05:29:46.761Z,7.40
2023-03-22T05:32:45.869Z,9.43
2023-03-22T05:35:34.211Z,8.77
2023-03-22T05:38:25.400Z,10.77
2023-03-22T05:41:17.679Z,11.90
2023-03-22T05:44:04.898Z,7.43
2023-03-22T05:46:54.091Z,8.10
2023-03-22T05:49:49.408Z,7.63
2023-03-22T05:52:36.307Z,10.07
2023-03-22T05:55:42.817Z,12.67
2023-03-22T05:58:31.634Z,8.03
2023-03-22T06:01:20.399Z,12.07
2023-03-22T06:04:06.847Z,12.33
2023-03-22T06:07:16.177Z,7.17
2023-03-22T06:10:09.512Z,10.33
2023-03-22T06:12:56.094Z,8.27
2023-03-22T06:15:47.839Z,9.73
2023-03-22T06:18:40.725Z,9.87
2023-03-22T06:21:31.019Z,8.10
2023-03-22T06:24:17.619Z,7.60
2023-03-22T06:27:05.484Z,10.43
2023-03-22T06:29:54.668Z,9.93
2023-03-22T06:32:44.395Z,9.00
2023-03-22T06:35:34.721Z,6.57
2023-03-22T06:38:24.147Z,7.47
2023-03-22T06:41:10.578Z,6.37
2023-03-22T06:43:56.974Z,5.60
2023-03-22T06:47:06.747Z,4.77
2023-03-22T06:50:12.221Z,9.80
2023-03-22T06:53:30.595Z,6.20
2023-03-22T06:56:17.221Z,5.63
2023-03-22T06:59:09.021Z,7.00
2023-03-22T07:01:55.359Z,8.80
2023-03-22T07:04:42.125Z,6.97
2023-03-22T07:07:28.793Z,5.03
2023-03-22T07:10:15.681Z,3.40
2023-03-22T07:13:03.191Z,3.97
2023-03-22T07:15:56.076Z,3.53
2023-03-22T07:18:54.433Z,4.00
2023-03-22T07:21:40.950Z,5.27
2023-03-22T07:24:30.753Z,3.77
2023-03-22T07:27:18.263Z,5.93
2023-03-22T07:30:07.648Z,4.53
2023-03-22T07:32:58.563Z,5.33
2023-03-22T07:35:45.449Z,3.47
2023-03-22T07:38:32.248Z,3.00
2023-03-22T07:41:19.047Z,3.97
2023-03-22T07:44:18.038Z,2.33
2023-03-22T07:47:40.764Z,4.63
2023-03-22T07:50:56.900Z,3.10
2023-03-22T07:53:45.673Z,2.93
2023-03-22T07:56:32.661Z,3.47
2023-03-22T07:59:19.238Z,4.20
2023-03-22T08:02:06.634Z,3.67
2023-03-22T08:04:58.721Z,2.00
2023-03-22T08:07:51.501Z,3.30
2023-03-22T08:10:38.553Z,3.33
2023-03-22T08:13:26.028Z,2.93
2023-03-22T08:16:13.092Z,2.13
2023-03-22T08:19:00.100Z,2.10
2023-03-22T08:21:48.355Z,2.50
2023-03-22T08:24:50.009Z,1.67
2023-03-22T08:27:45.094Z,2.17
2023-03-22T08:30:31.646Z,1.53
2023-03-22T08:33:21.156Z,4.53
2023-03-22T08:36:09.781Z,2.23
2023-03-22T08:39:04.677Z,2.03
2023-03-22T08:42:09.756Z,1.10
2023-03-22T08:44:56.623Z,1.50
2023-03-22T08:47:46.392Z,1.77
2023-03-22T08:50:35.023Z,0.93
2023-03-22T08:53:35.506Z,1.50
2023-03-22T08:56:43.646Z,3.73
2023-03-22T08:59:52.260Z,1.40
2023-03-22T09:03:05.367Z,1.00
2023-03-22T09:05:52.224Z,1.60
2023-03-22T09:08:38.950Z,2.23
2023-03-22T09:11:31.521Z,1.47
2023-03-22T09:14:18.156Z,2.03
2023-03-22T09:17:06.246Z,1.33
2023-03-22T09:20:02.858Z,3.53
2023-03-22T09:22:53.091Z,2.80
2023-03-22T09:25:43.329Z,2.00
2023-03-22T09:28:30.535Z,1.37
2023-03-22T09:31:20.538Z,2.97
2023-03-22T09:34:12.663Z,1.80
2023-03-22T09:37:02.440Z,4.53
2023-03-22T09:39:57.791Z,0.97
2023-03-22T09:42:51.826Z,0.77
2023-03-22T09:45:43.726Z,0.73
2023-03-22T09:48:42.473Z,2.10
2023-03-22T09:51:43.686Z,1.77
2023-03-22T09:54:34.605Z,1.33
2023-03-22T09:57:41.168Z,0.60
2023-03-22T10:00:51.404Z,0.87
2023-03-22T10:04:10.161Z,0.60
2023-03-22T10:07:44.460Z,2.03
2023-03-22T10:10:31.153Z,1.20
2023-03-22T10:13:27.121Z,2.03
2023-03-22T10:16:25.696Z,1.03
2023-03-22T10:19:28.076Z,1.50
2023-03-22T10:22:17.315Z,0.70
2023-03-22T10:25:06.759Z,0.87
2023-03-22T10:27:53.242Z,0.80
2023-03-22T10:30:41.506Z,4.00
2023-03-22T10:33:37.604Z,0.87
2023-03-22T10:36:31.232Z,2.43
2023-03-22T10:39:40.793Z,2.77
2023-03-22T10:42:30.396Z,0.60
2023-03-22T10:45:17.222Z,1.10
2023-03-22T10:48:14.388Z,0.70
2023-03-22T10:51:01.477Z,0.50
2023-03-22T10:53:53.004Z,0.63
2023-03-22T10:56:39.290Z,0.70
2023-03-22T10:59:49.008Z,1.63
2023-03-22T11:02:35.699Z,0.70
2023-03-22T11:05:25.834Z,0.60
2023-03-22T11:08:15.156Z,0.60
2023-03-22T11:11:07.634Z,0.70
2023-03-22T11:14:00.185Z,1.30
2023-03-22T11:16:56.660Z,0.60
2023-03-22T11:20:01.784Z,0.70
2023-03-22T11:22:50.530Z,0.90
2023-03-22T11:25:44.049Z,1.33
2023-03-22T11:28:46.469Z,0.60
2023-03-22T11:31:58.095Z,1.07
2023-03-22T11:34:46.330Z,0.90
2023-03-22T11:37:32.633Z,0.77
2023-03-22T11:40:20.952Z,0.97
2023-03-22T11:43:10.553Z,1.20
2023-03-22T11:45:58.900Z,1.60
2023-03-22T11:48:47.263Z,0.53
2023-03-22T11:51:40.941Z,1.40
2023-03-22T11:54:31.852Z,0.60
2023-03-22T11:57:24.264Z,0.57
2023-03-22T12:00:15.079Z,0.57
2023-03-22T12:03:05.908Z,0.80
2023-03-22T12:05:53.003Z,0.77
2023-03-22T12:09:14.118Z,0.53
2023-03-22T12:12:03.427Z,0.53
2023-03-22T12:14:59.810Z,0.70
2023-03-22T12:18:06.092Z,0.80
2023-03-22T12:20:59.504Z,0.73
2023-03-22T12:23:45.990Z,0.87
2023-03-22T12:26:35.141Z,1.30
2023-03-22T12:29:22.366Z,0.93
2023-03-22T12:32:30.847Z,0.90
2023-03-22T12:35:29.157Z,0.87
2023-03-22T12:38:33.900Z,0.80
2023-03-22T12:41:26.468Z,0.70
2023-03-22T12:44:58.932Z,0.90
2023-03-22T12:48:14.760Z,0.77
2023-03-22T12:51:05.823Z,0.70
2023-03-22T12:53:57.026Z,1.40
2023-03-22T12:56:45.967Z,0.50
2023-03-22T12:59:32.829Z,1.83
2023-03-22T13:02:27.555Z,1.57
2023-03-22T13:05:14.291Z,0.93
2023-03-22T13:08:04.002Z,0.97
2023-03-22T13:11:03.337Z,0.60
2023-03-22T13:13:49.879Z,1.30
2023-03-22T13:16:59.223Z,1.57
2023-03-22T13:19:53.569Z,1.93
2023-03-22T13:22:41.585Z,2.37
2023-03-22T13:25:37.501Z,0.73
2023-03-22T13:28:26.385Z,2.40
2023-03-22T13:31:34.025Z,0.83
2023-03-22T13:34:31.262Z,0.73
2023-03-22T13:37:49.254Z,1.43
2023-03-22T13:40:44.581Z,1.33
2023-03-22T13:43:32.924Z,1.57
2023-03-22T13:46:22.441Z,0.90
2023-03-22T13:49:31.278Z,0.77
2023-03-22T13:52:41.332Z,1.13
2023-03-22T13:56:03.664Z,0.43
2023-03-22T13:58:53.231Z,0.80
2023-03-22T14:01:47.618Z,1.17
2023-03-22T14:04:43.450Z,1.30
2023-03-22T14:07:53.141Z,2.43
2023-03-22T14:11:09.008Z,1.33
2023-03-22T14:14:28.651Z,0.67
2023-03-22T14:17:38.919Z,1.67
2023-03-22T14:20:30.375Z,1.67
